createdAt,value
2018-09-12T00:01:01.184Z,82.18
2018-09-12T00:03:30.030Z,83.10
2018-09-12T00:05:58.734Z,83.22
2018-09-12T00:08:27.492Z,82.83
2018-09-12T00:10:56.145Z,82.77
2018-09-12T00:13:24.874Z,82.98
2018-09-12T00:15:53.641Z,82.92
2018-09-12T00:18:22.513Z,82.92
2018-09-12T00:20:51.200Z,82.62
2018-09-12T00:23:19.871Z,82.39
2018-09-12T00:25:48.770Z,82.25
2018-09-12T00:28:17.620Z,82.31
2018-09-12T00:30:46.454Z,82.21
2018-09-12T00:33:15.267Z,82.13
2018-09-12T00:35:43.967Z,82.23
2018-09-12T00:38:13.131Z,82.22
2018-09-12T00:40:41.996Z,81.94
2018-09-12T00:43:10.867Z,82.10
2018-09-12T00:45:39.707Z,82.08
2018-09-12T00:48:09.096Z,82.24
2018-09-12T00:50:37.804Z,81.92
2018-09-12T00:53:06.556Z,82.02
2018-09-12T00:55:35.246Z,81.89
2018-09-12T00:58:04.185Z,82.13
2018-09-12T01:00:32.930Z,82.03
2018-09-12T01:03:01.748Z,81.88
2018-09-12T01:05:30.887Z,81.71
2018-09-12T01:07:59.669Z,81.84
2018-09-12T01:10:28.325Z,82.10
2018-09-12T01:12:56.975Z,82.29
2018-09-12T01:15:26.788Z,81.83
2018-09-12T01:17:55.717Z,81.91
2018-09-12T01:20:24.357Z,82.07
2018-09-12T01:22:53.284Z,82.39
2018-09-12T01:25:21.993Z,82.33
2018-09-12T01:27:57.662Z,82.16
2018-09-12T01:30:26.518Z,82.33
2018-09-12T01:32:56.837Z,82.28
2018-09-12T01:35:25.698Z,82.49
2018-09-12T01:37:54.447Z,82.59
2018-09-12T01:40:23.220Z,82.27
2018-09-12T01:42:52.085Z,82.58
2018-09-12T01:45:20.961Z,82.36
2018-09-12T01:47:50.231Z,82.44
2018-09-12T01:50:19.307Z,82.45
2018-09-12T01:52:48.412Z,82.70
2018-09-12T01:55:17.208Z,82.84
2018-09-12T01:57:46.028Z,82.84
2018-09-12T02:00:19.135Z,82.59
2018-09-12T02:02:49.196Z,82.60
2018-09-12T02:05:17.947Z,82.67
2018-09-12T02:07:46.643Z,82.56
2018-09-12T02:10:15.617Z,82.43
2018-09-12T02:12:44.387Z,82.74
2018-09-12T02:15:13.348Z,82.78
2018-09-12T02:17:42.085Z,82.75
2018-09-12T02:20:10.993Z,82.62
2018-09-12T02:22:39.787Z,82.70
2018-09-12T02:25:08.483Z,82.83
2018-09-12T02:27:37.422Z,82.58
2018-09-12T02:30:07.287Z,82.74
2018-09-12T02:32:36.053Z,82.65
2018-09-12T02:35:39.740Z,82.56
2018-09-12T02:38:08.808Z,82.77
2018-09-12T02:40:38.630Z,82.52
2018-09-12T02:43:07.289Z,82.62
2018-09-12T02:45:35.959Z,82.39
2018-09-12T02:48:04.916Z,82.62
2018-09-12T02:50:33.585Z,82.47
2018-09-12T02:53:02.471Z,82.48
2018-09-12T02:55:34.233Z,82.75
2018-09-12T02:58:02.913Z,82.61
2018-09-12T03:00:31.714Z,82.85
2018-09-12T03:03:00.355Z,82.73
2018-09-12T03:05:29.142Z,82.70
2018-09-12T03:07:57.959Z,82.83
2018-09-12T03:10:26.814Z,82.68
2018-09-12T03:12:55.537Z,82.42
2018-09-12T03:15:24.337Z,82.65
2018-09-12T03:17:52.962Z,82.47
2018-09-12T03:20:21.953Z,82.56
2018-09-12T03:22:50.762Z,82.57
2018-09-12T03:25:19.653Z,82.41
2018-09-12T03:27:48.397Z,82.42
2018-09-12T03:30:17.268Z,82.67
2018-09-12T03:32:46.054Z,82.77
2018-09-12T03:35:14.801Z,82.58
2018-09-12T03:37:43.597Z,82.78
2018-09-12T03:40:12.342Z,83.00
2018-09-12T03:42:41.074Z,82.94
2018-09-12T03:45:09.720Z,83.01
2018-09-12T03:47:38.444Z,83.26
2018-09-12T03:50:07.612Z,83.07
2018-09-12T03:52:36.363Z,83.04
2018-09-12T03:55:05.416Z,83.22
2018-09-12T03:57:34.227Z,83.17
2018-09-12T04:00:03.951Z,83.36
2018-09-12T04:02:32.797Z,83.02
2018-09-12T04:05:01.542Z,83.10
2018-09-12T04:07:30.467Z,82.72
2018-09-12T04:09:59.218Z,82.60
2018-09-12T04:12:28.131Z,82.74
2018-09-12T04:14:56.794Z,83.44
2018-09-12T04:17:30.076Z,83.60
2018-09-12T04:19:58.772Z,83.60
2018-09-12T04:22:27.644Z,83.32
2018-09-12T04:24:56.931Z,83.14
2018-09-12T04:27:25.864Z,82.98
2018-09-12T04:29:55.342Z,83.01
2018-09-12T04:32:24.405Z,82.93
2018-09-12T04:34:53.295Z,83.10
2018-09-12T04:37:22.035Z,83.31
2018-09-12T04:39:50.917Z,83.42
2018-09-12T04:42:19.603Z,83.84
2018-09-12T04:44:48.684Z,84.05
2018-09-12T04:47:17.715Z,84.25
2018-09-12T04:49:46.872Z,84.43
2018-09-12T04:52:15.708Z,84.67
2018-09-12T04:54:44.432Z,84.60
2018-09-12T04:57:15.691Z,84.98
2018-09-12T04:59:44.590Z,85.45
2018-09-12T05:02:13.228Z,85.11
2018-09-12T05:04:42.055Z,85.36
2018-09-12T05:07:11.144Z,84.93
2018-09-12T05:09:39.973Z,84.87
2018-09-12T05:12:08.717Z,85.18
2018-09-12T05:14:37.560Z,84.98
2018-09-12T05:17:06.750Z,84.97
2018-09-12T05:19:35.408Z,84.95
2018-09-12T05:22:04.478Z,84.86
2018-09-12T05:24:33.321Z,84.90
2018-09-12T05:27:02.227Z,84.69
2018-09-12T05:29:31.013Z,84.94
2018-09-12T05:31:59.853Z,84.89
2018-09-12T05:34:28.658Z,84.84
2018-09-12T05:36:57.413Z,84.61
2018-09-12T05:39:26.026Z,83.71
2018-09-12T05:41:54.725Z,84.17
2018-09-12T05:44:23.401Z,84.37
2018-09-12T05:46:52.097Z,84.14
2018-09-12T05:49:27.537Z,84.12
2018-09-12T05:51:56.329Z,83.87
2018-09-12T05:54:25.103Z,83.14
2018-09-12T05:56:53.786Z,82.30
2018-09-12T05:59:22.741Z,82.16
2018-09-12T06:01:51.655Z,82.15
2018-09-12T06:04:20.483Z,82.07
2018-09-12T06:06:49.223Z,82.28
2018-09-12T06:09:20.824Z,82.30
2018-09-12T06:11:49.735Z,82.12
2018-09-12T06:14:18.335Z,81.93
2018-09-12T06:16:47.108Z,81.75
2018-09-12T06:19:16.011Z,81.83
2018-09-12T06:21:44.896Z,81.93
2018-09-12T06:24:13.613Z,82.12
2018-09-12T06:26:42.262Z,82.47
2018-09-12T06:29:11.016Z,82.18
2018-09-12T06:31:39.605Z,82.26
2018-09-12T06:34:08.458Z,81.74
2018-09-12T06:36:37.181Z,81.77
2018-09-12T06:39:08.892Z,81.88
2018-09-12T06:41:37.663Z,81.91
2018-09-12T06:44:06.473Z,81.66
2018-09-12T06:46:35.648Z,81.16
2018-09-12T06:49:04.363Z,81.34
2018-09-12T06:51:33.129Z,81.04
2018-09-12T06:54:02.180Z,81.37
2018-09-12T06:56:31.029Z,81.31
2018-09-12T06:58:59.870Z,80.94
2018-09-12T07:01:28.583Z,80.47
2018-09-12T07:03:57.398Z,80.52
2018-09-12T07:06:26.347Z,81.09
2018-09-12T07:08:55.057Z,80.80
2018-09-12T07:11:23.862Z,80.57
2018-09-12T07:13:52.495Z,80.80
2018-09-12T07:16:21.152Z,80.30
2018-09-12T07:18:50.052Z,80.12
2018-09-12T07:21:18.775Z,80.13
2018-09-12T07:23:47.677Z,79.77
2018-09-12T07:26:16.308Z,79.95
2018-09-12T07:28:45.193Z,80.37
2018-09-12T07:31:13.880Z,80.15
2018-09-12T07:33:42.811Z,79.47
2018-09-12T07:36:11.446Z,79.43
2018-09-12T07:38:40.137Z,79.63
2018-09-12T07:41:08.854Z,78.93
2018-09-12T07:43:37.705Z,78.53
2018-09-12T07:46:06.441Z,78.16
2018-09-12T07:48:41.858Z,78.38
2018-09-12T07:51:10.611Z,78.16
2018-09-12T07:53:39.300Z,77.91
2018-09-12T07:56:08.727Z,78.26
2018-09-12T07:58:37.668Z,78.53
2018-09-12T08:01:06.894Z,78.99
2018-09-12T08:03:35.518Z,78.78
2018-09-12T08:06:04.342Z,78.58
2018-09-12T08:08:33.191Z,78.40
2018-09-12T08:11:02.054Z,78.11
2018-09-12T08:13:30.974Z,78.50
2018-09-12T08:16:00.008Z,78.74
2018-09-12T08:18:28.883Z,78.72
2018-09-12T08:20:57.608Z,78.26
2018-09-12T08:23:26.280Z,78.00
2018-09-12T08:25:55.130Z,77.31
2018-09-12T08:28:24.155Z,77.39
2018-09-12T08:30:53.070Z,76.52
2018-09-12T08:33:21.991Z,76.09
2018-09-12T08:35:50.816Z,75.77
2018-09-12T08:38:20.738Z,75.26
2018-09-12T08:40:49.799Z,75.40
2018-09-12T08:43:18.497Z,75.87
2018-09-12T08:45:47.416Z,75.41
2018-09-12T08:48:16.299Z,74.87
2018-09-12T08:50:49.252Z,74.77
2018-09-12T08:53:19.035Z,74.47
2018-09-12T08:55:49.042Z,73.94
2018-09-12T08:58:18.116Z,74.52
2018-09-12T09:00:47.001Z,73.57
2018-09-12T09:03:16.192Z,72.54
2018-09-12T09:05:45.176Z,72.79
2018-09-12T09:08:13.990Z,72.35
2018-09-12T09:10:42.759Z,72.22
2018-09-12T09:13:11.680Z,72.23
2018-09-12T09:15:40.646Z,72.22
2018-09-12T09:18:09.622Z,72.00
2018-09-12T09:20:38.335Z,71.94
2018-09-12T09:23:07.318Z,72.53
2018-09-12T09:25:36.054Z,71.27
2018-09-12T09:28:04.981Z,71.21
2018-09-12T09:30:34.444Z,69.80
2018-09-12T09:33:03.319Z,68.81
2018-09-12T09:35:32.509Z,68.88
2018-09-12T09:38:01.193Z,70.23
2018-09-12T09:40:30.083Z,69.80
2018-09-12T09:42:58.979Z,70.31
2018-09-12T09:45:27.800Z,69.68
2018-09-12T09:47:56.567Z,69.92
2018-09-12T09:50:25.509Z,69.97
2018-09-12T09:52:54.548Z,70.86
2018-09-12T09:55:23.271Z,70.30
2018-09-12T09:57:52.138Z,70.95
2018-09-12T10:00:26.526Z,70.87
2018-09-12T10:03:00.289Z,70.90
2018-09-12T10:05:34.412Z,71.00
2018-09-12T10:08:08.353Z,69.88
2018-09-12T10:10:37.073Z,69.70
2018-09-12T10:13:05.816Z,69.97
2018-09-12T10:15:34.453Z,70.63
2018-09-12T10:18:03.295Z,71.63
2018-09-12T10:20:32.061Z,73.27
2018-09-12T10:23:00.814Z,71.95
2018-09-12T10:25:29.498Z,71.63
2018-09-12T10:27:58.372Z,72.81
2018-09-12T10:30:27.597Z,73.71
2018-09-12T10:32:56.483Z,72.91
2018-09-12T10:35:25.187Z,72.75
2018-09-12T10:37:53.944Z,72.19
2018-09-12T10:40:22.854Z,72.84
2018-09-12T10:42:52.977Z,74.38
2018-09-12T10:45:21.829Z,73.86
2018-09-12T10:47:50.740Z,73.35
2018-09-12T10:50:19.454Z,73.44
2018-09-12T10:52:48.165Z,73.95
2018-09-12T10:55:17.203Z,74.21
2018-09-12T10:57:46.019Z,75.01
2018-09-12T11:00:15.252Z,74.48
2018-09-12T11:02:44.301Z,74.54
2018-09-12T11:05:13.275Z,73.36
2018-09-12T11:07:42.105Z,74.49
2018-09-12T11:10:10.747Z,74.31
2018-09-12T11:12:46.245Z,73.85
2018-09-12T11:15:14.990Z,73.08
2018-09-12T11:17:43.831Z,72.29
2018-09-12T11:20:12.615Z,72.37
2018-09-12T11:22:41.508Z,72.64
2018-09-12T11:25:10.101Z,71.96
2018-09-12T11:27:38.871Z,72.13
2018-09-12T11:30:07.638Z,72.67
2018-09-12T11:32:36.705Z,71.99
2018-09-12T11:35:05.491Z,71.98
2018-09-12T11:37:34.173Z,72.34
2018-09-12T11:40:02.868Z,73.21
2018-09-12T11:42:31.488Z,73.39
2018-09-12T11:45:00.139Z,74.67
2018-09-12T11:47:28.744Z,74.17
2018-09-12T11:50:00.740Z,75.47
2018-09-12T11:52:30.337Z,74.70
2018-09-12T11:54:59.199Z,75.07
2018-09-12T11:57:27.929Z,75.13
2018-09-12T11:59:56.802Z,75.19
2018-09-12T12:02:25.625Z,74.80
2018-09-12T12:04:54.507Z,74.68
2018-09-12T12:07:23.341Z,75.89
2018-09-12T12:09:52.082Z,74.89
2018-09-12T12:12:21.207Z,75.02
2018-09-12T12:14:50.336Z,75.01
2018-09-12T12:17:19.078Z,75.62
2018-09-12T12:19:47.767Z,75.94
2018-09-12T12:22:16.962Z,75.88
2018-09-12T12:24:45.627Z,76.22
2018-09-12T12:27:14.401Z,76.13
2018-09-12T12:29:43.281Z,76.97
2018-09-12T12:32:12.147Z,77.16
2018-09-12T12:34:41.315Z,77.32
2018-09-12T12:37:10.114Z,77.88
2018-09-12T12:39:38.852Z,77.98
2018-09-12T12:42:07.611Z,78.45
2018-09-12T12:44:36.294Z,78.82
2018-09-12T12:47:05.105Z,78.74
2018-09-12T12:49:33.994Z,79.05
2018-09-12T12:52:03.553Z,78.89
2018-09-12T12:54:32.469Z,78.54
2018-09-12T12:57:01.518Z,78.31
2018-09-12T12:59:30.220Z,77.99
2018-09-12T13:01:59.072Z,78.06
2018-09-12T13:04:27.701Z,77.11
2018-09-12T13:06:56.416Z,77.24
2018-09-12T13:09:25.069Z,77.36
2018-09-12T13:11:54.013Z,76.87
2018-09-12T13:14:22.786Z,76.83
2018-09-12T13:16:51.535Z,77.49
2018-09-12T13:19:20.272Z,76.53
2018-09-12T13:21:49.204Z,76.18
2018-09-12T13:24:18.246Z,75.99
2018-09-12T13:26:47.176Z,77.14
2018-09-12T13:29:16.138Z,75.84
2018-09-12T13:31:45.025Z,76.66
2018-09-12T13:34:13.735Z,75.38
2018-09-12T13:36:42.502Z,74.52
2018-09-12T13:39:14.739Z,74.54
2018-09-12T13:41:43.501Z,75.49
2018-09-12T13:44:12.552Z,76.41
2018-09-12T13:46:41.530Z,76.48
2018-09-12T13:49:10.439Z,76.26
2018-09-12T13:51:39.314Z,75.94
2018-09-12T13:54:08.145Z,76.34
2018-09-12T13:56:36.919Z,76.30
2018-09-12T13:59:05.907Z,76.52
2018-09-12T14:01:34.785Z,76.73
2018-09-12T14:04:03.695Z,76.49
2018-09-12T14:06:32.605Z,76.67
2018-09-12T14:09:01.271Z,77.37
2018-09-12T14:11:30.064Z,77.88
2018-09-12T14:13:58.842Z,77.95
2018-09-12T14:16:28.058Z,78.73
2018-09-12T14:18:56.645Z,78.49
2018-09-12T14:21:25.234Z,79.16
2018-09-12T14:23:54.514Z,78.74
2018-09-12T14:26:23.272Z,79.42
2018-09-12T14:28:52.110Z,79.68
2018-09-12T14:31:21.771Z,79.37
2018-09-12T14:33:51.144Z,79.59
2018-09-12T14:36:20.264Z,79.31
2018-09-12T14:38:50.115Z,79.63
2018-09-12T14:41:19.298Z,79.68
2018-09-12T14:43:48.463Z,79.87
2018-09-12T14:46:17.489Z,79.93
2018-09-12T14:48:46.569Z,80.02
2018-09-12T14:51:15.552Z,79.84
2018-09-12T14:53:44.428Z,79.64
2018-09-12T14:56:14.456Z,79.88
2018-09-12T14:58:43.330Z,79.93
2018-09-12T15:01:12.397Z,79.79
2018-09-12T15:03:41.322Z,80.04
2018-09-12T15:06:10.789Z,80.36
2018-09-12T15:08:39.713Z,80.29
2018-09-12T15:11:08.599Z,79.23
2018-09-12T15:13:38.560Z,79.16
2018-09-12T15:16:07.404Z,78.93
2018-09-12T15:18:36.705Z,79.80
2018-09-12T15:21:05.768Z,79.14
2018-09-12T15:23:34.506Z,79.13
2018-09-12T15:26:03.826Z,79.55
2018-09-12T15:28:33.652Z,80.23
2018-09-12T15:31:02.473Z,80.56
2018-09-12T15:33:31.280Z,80.62
2018-09-12T15:36:00.180Z,80.40
2018-09-12T15:38:29.504Z,80.53
2018-09-12T15:40:59.200Z,80.47
2018-09-12T15:43:28.971Z,80.47
2018-09-12T15:45:57.674Z,80.64
2018-09-12T15:48:26.584Z,80.75
2018-09-12T15:50:55.321Z,81.33
2018-09-12T15:53:25.868Z,81.39
2018-09-12T15:55:54.731Z,80.96
2018-09-12T15:58:23.512Z,80.98
2018-09-12T16:00:53.867Z,80.97
2018-09-12T16:03:22.733Z,80.91
2018-09-12T16:05:51.884Z,81.12
2018-09-12T16:08:20.871Z,81.08
2018-09-12T16:10:49.591Z,81.00
2018-09-12T16:13:18.406Z,81.18
2018-09-12T16:15:47.224Z,81.12
2018-09-12T16:18:18.237Z,81.42
2018-09-12T16:20:46.956Z,81.06
2018-09-12T16:23:16.402Z,81.45
2018-09-12T16:25:46.352Z,81.25
2018-09-12T16:28:15.539Z,81.72
2018-09-12T16:30:44.436Z,81.48
2018-09-12T16:33:14.310Z,81.18
2018-09-12T16:35:43.202Z,81.17
2018-09-12T16:38:12.525Z,80.73
2018-09-12T16:40:41.533Z,81.19
2018-09-12T16:43:10.336Z,81.53
2018-09-12T16:45:39.326Z,81.56
2018-09-12T16:48:08.504Z,81.85
2018-09-12T16:50:37.540Z,81.56
2018-09-12T16:53:07.191Z,81.77
2018-09-12T16:55:36.184Z,81.82
2018-09-12T16:58:05.221Z,81.36
2018-09-12T17:00:34.381Z,81.25
2018-09-12T17:03:03.423Z,81.87
2018-09-12T17:05:32.314Z,82.01
2018-09-12T17:08:01.279Z,81.80
2018-09-12T17:10:30.411Z,81.84
2018-09-12T17:13:04.604Z,81.61
2018-09-12T17:15:34.021Z,81.83
2018-09-12T17:18:04.090Z,81.88
2018-09-12T17:20:32.828Z,82.10
2018-09-12T17:23:01.798Z,82.01
2018-09-12T17:25:32.949Z,82.11
2018-09-12T17:28:02.676Z,82.05
2018-09-12T17:30:31.862Z,82.38
2018-09-12T17:33:01.475Z,82.69
2018-09-12T17:35:30.389Z,82.28
2018-09-12T17:37:59.288Z,82.51
2018-09-12T17:40:28.838Z,82.31
2018-09-12T17:42:57.845Z,82.32
2018-09-12T17:45:26.709Z,82.35
2018-09-12T17:47:55.611Z,82.55
2018-09-12T17:50:26.238Z,82.80
2018-09-12T17:52:55.679Z,82.76
2018-09-12T17:55:26.628Z,82.55
2018-09-12T17:57:55.472Z,82.75
2018-09-12T18:00:24.631Z,82.70
2018-09-12T18:02:53.571Z,82.93
2018-09-12T18:05:22.475Z,82.96
2018-09-12T18:07:51.359Z,82.81
2018-09-12T18:10:21.160Z,82.92
2018-09-12T18:12:50.005Z,83.01
2018-09-12T18:15:18.798Z,82.93
2018-09-12T18:17:47.715Z,83.28
2018-09-12T18:20:16.755Z,83.26
2018-09-12T18:22:46.285Z,82.95
2018-09-12T18:25:16.366Z,83.24
2018-09-12T18:27:45.115Z,83.21
2018-09-12T18:30:14.675Z,83.26
2018-09-12T18:32:43.566Z,83.23
2018-09-12T18:35:12.562Z,83.33
2018-09-12T18:37:41.843Z,82.99
2018-09-12T18:40:10.813Z,83.48
2018-09-12T18:42:40.624Z,83.18
2018-09-12T18:45:09.714Z,83.17
2018-09-12T18:47:39.328Z,83.20
2018-09-12T18:50:08.890Z,83.33
2018-09-12T18:52:37.525Z,83.24
2018-09-12T18:55:06.285Z,83.53
2018-09-12T18:57:35.055Z,83.50
2018-09-12T19:00:04.992Z,83.60
2018-09-12T19:02:33.816Z,83.43
2018-09-12T19:05:02.850Z,83.72
2018-09-12T19:07:31.664Z,83.47
2018-09-12T19:10:00.683Z,83.39
2018-09-12T19:12:32.503Z,83.50
2018-09-12T19:15:01.807Z,83.67
2018-09-12T19:17:30.883Z,83.65
2018-09-12T19:20:00.055Z,83.48
2018-09-12T19:22:29.501Z,83.37
2018-09-12T19:25:04.891Z,83.30
2018-09-12T19:27:33.863Z,82.86
2018-09-12T19:30:02.955Z,83.19
2018-09-12T19:32:31.715Z,83.03
2018-09-12T19:35:00.645Z,82.87
2018-09-12T19:37:32.202Z,82.79
2018-09-12T19:40:01.241Z,82.57
2018-09-12T19:42:31.443Z,82.59
2018-09-12T19:45:00.848Z,82.97
2018-09-12T19:47:29.806Z,82.81
2018-09-12T19:49:58.806Z,82.64
2018-09-12T19:52:27.501Z,82.80
2018-09-12T19:54:56.253Z,83.04
2018-09-12T19:57:25.073Z,83.00
2018-09-12T19:59:54.277Z,83.16
2018-09-12T20:02:27.198Z,83.15
2018-09-12T20:04:56.294Z,83.18
2018-09-12T20:07:25.112Z,82.73
2018-09-12T20:09:53.842Z,83.00
2018-09-12T20:12:23.426Z,83.03
2018-09-12T20:14:52.828Z,83.19
2018-09-12T20:17:21.654Z,83.29
2018-09-12T20:19:51.014Z,83.37
2018-09-12T20:22:20.929Z,83.53
2018-09-12T20:24:49.710Z,83.49
2018-09-12T20:27:18.403Z,83.46
2018-09-12T20:29:47.654Z,83.55
2018-09-12T20:32:16.630Z,83.60
2018-09-12T20:34:45.267Z,83.95
2018-09-12T20:37:14.726Z,84.22
2018-09-12T20:39:43.842Z,84.16
2018-09-12T20:42:12.694Z,84.38
2018-09-12T20:44:41.636Z,84.34
2018-09-12T20:47:11.307Z,83.86
2018-09-12T20:49:40.188Z,84.22
2018-09-12T20:52:09.541Z,84.23
2018-09-12T20:54:38.240Z,84.11
2018-09-12T20:57:07.144Z,83.86
2018-09-12T20:59:35.991Z,83.87
2018-09-12T21:02:04.763Z,83.99
2018-09-12T21:04:33.497Z,83.90
2018-09-12T21:07:02.664Z,83.97
2018-09-12T21:09:31.454Z,84.36
2018-09-12T21:12:00.140Z,84.26
2018-09-12T21:14:29.035Z,84.24
2018-09-12T21:16:57.765Z,84.13
2018-09-12T21:19:26.483Z,84.26
2018-09-12T21:21:55.208Z,84.21
2018-09-12T21:24:23.981Z,84.39
2018-09-12T21:26:52.808Z,84.39
2018-09-12T21:29:21.663Z,84.33
2018-09-12T21:31:50.514Z,84.26
2018-09-12T21:34:19.408Z,84.14
2018-09-12T21:36:48.109Z,84.14
2018-09-12T21:39:16.934Z,84.13
2018-09-12T21:41:45.688Z,84.22
2018-09-12T21:44:14.550Z,83.96
2018-09-12T21:46:43.216Z,84.13
2018-09-12T21:49:11.837Z,83.86
2018-09-12T21:51:40.800Z,84.01
2018-09-12T21:54:09.489Z,83.95
2018-09-12T21:56:38.139Z,84.18
2018-09-12T21:59:06.996Z,84.32
2018-09-12T22:01:35.603Z,84.25
2018-09-12T22:04:04.629Z,84.22
2018-09-12T22:06:33.449Z,84.20
2018-09-12T22:09:03.474Z,84.36
2018-09-12T22:11:32.397Z,84.42
2018-09-12T22:14:01.217Z,84.66
2018-09-12T22:16:30.088Z,84.64
2018-09-12T22:18:58.983Z,84.52
2018-09-12T22:21:27.924Z,84.51
2018-09-12T22:23:56.745Z,84.36
2018-09-12T22:26:25.480Z,84.25
2018-09-12T22:28:54.375Z,84.46
2018-09-12T22:31:22.990Z,84.51
2018-09-12T22:33:52.175Z,84.45
2018-09-12T22:36:20.971Z,84.42
2018-09-12T22:38:49.971Z,84.38
2018-09-12T22:41:18.816Z,84.42
2018-09-12T22:43:47.500Z,84.55
2018-09-12T22:46:16.359Z,84.40
2018-09-12T22:48:45.397Z,84.67
2018-09-12T22:51:14.076Z,84.54
2018-09-12T22:53:43.090Z,84.75
2018-09-12T22:56:11.899Z,84.59
2018-09-12T22:58:40.630Z,85.08
2018-09-12T23:01:09.281Z,84.91
2018-09-12T23:03:37.956Z,84.91
2018-09-12T23:06:06.946Z,85.16
2018-09-12T23:08:36.115Z,84.98
2018-09-12T23:11:04.820Z,84.97
2018-09-12T23:13:33.512Z,84.82
2018-09-12T23:16:02.256Z,84.87
2018-09-12T23:18:31.296Z,84.73
2018-09-12T23:20:59.987Z,84.77
2018-09-12T23:23:28.771Z,84.93
2018-09-12T23:25:57.527Z,84.87
2018-09-12T23:28:26.343Z,84.94
2018-09-12T23:30:55.586Z,85.06
2018-09-12T23:33:24.501Z,85.07
2018-09-12T23:35:53.440Z,85.24
2018-09-12T23:38:22.559Z,85.24
2018-09-12T23:40:51.367Z,85.24
2018-09-12T23:43:20.042Z,85.19
2018-09-12T23:45:48.930Z,85.22
2018-09-12T23:48:17.940Z,85.06
2018-09-12T23:50:47.008Z,85.64
2018-09-12T23:53:15.988Z,85.10
2018-09-12T23:55:44.776Z,85.49
2018-09-12T23:58:13.566Z,85.53
